Time;durP1;ratioP1;P1;durP2;ratioP2;P2;SDS_P1;SDS_P2;PMS_P1;PMS_P2;Temp;Humidity;BMP_temperature;BMP_pressure;BME280_temperature;BME280_humidity;BME280_pressure;Samples;Min_cycle;Max_cycle;Signal;HPM_P1;HPM_P2
2022/04/14 00:01:34;;;;;;;21.40;12.07;;;14.70;99.90;;;;;;4369796;28;10000779;-81
2022/04/14 00:04:00;;;;;;;17.40;12.65;;;14.70;99.90;;;;;;5043775;28;20076;-81
2022/04/14 00:06:25;;;;;;;18.50;12.43;;;14.70;99.90;;;;;;5050936;28;20057;-81
2022/04/14 00:08:52;;;;;;;17.90;12.07;;;14.70;99.90;;;;;;5060145;28;20107;-81
2022/04/14 00:11:18;;;;;;;22.48;12.90;;;14.70;99.90;;;;;;5053410;28;20057;-80
2022/04/14 00:13:44;;;;;;;19.35;12.32;;;14.70;99.90;;;;;;5054146;28;20071;-80
2022/04/14 00:16:09;;;;;;;18.77;12.05;;;14.60;99.90;;;;;;5053905;28;20147;-81
2022/04/14 00:18:35;;;;;;;17.25;12.88;;;14.60;99.90;;;;;;5059386;28;20045;-81
2022/04/14 00:21:00;;;;;;;17.63;13.32;;;14.50;99.90;;;;;;5054258;28;20048;-81
2022/04/14 00:23:26;;;;;;;22.73;13.88;;;14.50;99.90;;;;;;5051827;28;20237;-81
2022/04/14 00:25:52;;;;;;;21.65;13.52;;;14.50;99.90;;;;;;5054128;28;20017;-81
2022/04/14 00:28:17;;;;;;;19.30;13.45;;;14.50;99.90;;;;;;5057855;28;20059;-81
2022/04/14 00:30:43;;;;;;;21.92;13.10;;;14.50;99.90;;;;;;5060121;28;20040;-81
2022/04/14 00:33:09;;;;;;;19.27;13.02;;;14.40;99.90;;;;;;5067953;28;20039;-81
2022/04/14 00:35:34;;;;;;;22.45;13.57;;;14.40;99.90;;;;;;5089098;28;20024;-81
2022/04/14 00:38:00;;;;;;;22.55;14.10;;;14.40;99.90;;;;;;5092814;28;20195;-81
2022/04/14 00:40:26;;;;;;;24.52;15.90;;;14.40;99.90;;;;;;5094020;28;20027;-80
2022/04/14 00:42:51;;;;;;;23.20;14.63;;;14.40;99.90;;;;;;5094292;28;20019;-80
2022/04/14 00:45:17;;;;;;;26.95;14.95;;;14.40;99.90;;;;;;5084752;28;20111;-80
2022/04/14 00:47:42;;;;;;;24.85;16.25;;;14.40;99.90;;;;;;5095612;28;20032;-80
2022/04/14 00:50:08;;;;;;;23.23;15.48;;;14.30;99.90;;;;;;5085883;28;20051;-80
2022/04/14 00:52:34;;;;;;;24.55;17.48;;;14.30;99.90;;;;;;5099910;28;20028;-80
2022/04/14 00:55:00;;;;;;;26.98;16.58;;;14.30;99.90;;;;;;5089165;28;20101;-80
2022/04/14 00:57:25;;;;;;;24.17;16.85;;;14.20;99.90;;;;;;5093718;28;20496;-80
2022/04/14 00:59:51;;;;;;;23.17;16.63;;;14.20;99.90;;;;;;5086251;28;20520;-80
2022/04/14 01:02:17;;;;;;;23.77;17.00;;;14.20;99.90;;;;;;5088495;28;20020;-80
2022/04/14 01:04:43;;;;;;;23.10;16.65;;;14.10;99.90;;;;;;5084856;28;20149;-80
2022/04/14 01:07:09;;;;;;;26.75;18.38;;;14.00;99.90;;;;;;5092688;28;20287;-80
2022/04/14 01:09:36;;;;;;;23.75;18.45;;;14.00;99.90;;;;;;5094014;28;20391;-80
2022/04/14 01:12:01;;;;;;;25.75;18.58;;;14.10;99.90;;;;;;5090869;28;20031;-80
2022/04/14 01:14:32;;;;;;;24.63;18.00;;;14.00;99.90;;;;;;5083235;28;20023;-80
2022/04/14 01:17:01;;;;;;;27.95;19.17;;;14.00;99.90;;;;;;5086205;28;20393;-79
2022/04/14 01:19:27;;;;;;;26.80;20.83;;;13.90;99.90;;;;;;5084409;28;20482;-80
2022/04/14 01:22:12;;;;;;;32.13;19.73;;;13.90;99.90;;;;;;5089380;28;20372;-80
2022/04/14 01:24:38;;;;;;;25.40;19.40;;;13.90;99.90;;;;;;5101356;28;20031;-79
2022/04/14 01:27:04;;;;;;;30.52;21.45;;;13.80;99.90;;;;;;5096989;28;20031;-80
2022/04/14 01:29:30;;;;;;;29.20;20.60;;;13.80;99.90;;;;;;5098864;28;20027;-80
2022/04/14 01:31:57;;;;;;;33.10;22.30;;;13.80;99.90;;;;;;5104225;28;20120;-79
2022/04/14 01:34:23;;;;;;;33.97;22.20;;;13.90;99.90;;;;;;5086762;28;20137;-79
2022/04/14 01:36:48;;;;;;;29.73;21.55;;;13.80;99.90;;;;;;5091009;28;20114;-79
2022/04/14 01:39:14;;;;;;;35.03;23.23;;;13.90;99.90;;;;;;5092835;28;20032;-80
2022/04/14 01:41:41;;;;;;;41.00;23.92;;;13.80;99.90;;;;;;5095343;28;20024;-80
2022/04/14 01:44:08;;;;;;;33.50;23.30;;;13.80;99.90;;;;;;5086682;28;20492;-79
2022/04/14 01:46:34;;;;;;;36.25;23.27;;;13.80;99.90;;;;;;5090143;28;20027;-79
2022/04/14 01:49:00;;;;;;;31.50;22.60;;;13.80;99.90;;;;;;5091526;28;20032;-79
2022/04/14 01:51:29;;;;;;;31.90;22.27;;;13.80;99.90;;;;;;5095526;28;20588;-79
2022/04/14 01:53:55;;;;;;;32.85;21.02;;;13.80;99.90;;;;;;5093123;28;21049;-79
2022/04/14 01:56:21;;;;;;;31.48;20.70;;;13.80;99.90;;;;;;5090443;28;20114;-79
2022/04/14 01:58:48;;;;;;;31.80;21.52;;;13.90;99.90;;;;;;5106356;28;20059;-79
2022/04/14 02:01:13;;;;;;;32.15;20.48;;;13.80;99.90;;;;;;5090217;28;20020;-80
2022/04/14 02:03:39;;;;;;;31.25;20.25;;;13.90;99.90;;;;;;5091155;28;20032;-80
2022/04/14 02:06:05;;;;;;;33.10;20.20;;;13.90;99.90;;;;;;5090226;28;20594;-80
2022/04/14 02:08:30;;;;;;;31.80;20.52;;;13.80;99.90;;;;;;5094172;28;20016;-79
2022/04/14 02:10:56;;;;;;;30.17;20.35;;;13.80;99.90;;;;;;5091754;28;20488;-80
2022/04/14 02:13:22;;;;;;;27.63;19.15;;;13.80;99.90;;;;;;5089251;28;20189;-79
2022/04/14 02:15:47;;;;;;;29.75;20.35;;;13.80;99.90;;;;;;5095471;28;20032;-79
2022/04/14 02:18:13;;;;;;;31.38;19.27;;;13.80;99.90;;;;;;5090837;28;21149;-79
2022/04/14 02:20:39;;;;;;;35.45;23.45;;;13.80;99.90;;;;;;5090460;28;20027;-79
2022/04/14 02:23:04;;;;;;;35.70;23.15;;;13.80;99.90;;;;;;5088522;28;20135;-79
2022/04/14 02:25:30;;;;;;;35.65;23.80;;;13.80;99.90;;;;;;5086738;28;20020;-79
2022/04/14 02:27:55;;;;;;;34.97;24.05;;;13.80;99.90;;;;;;5087792;28;20020;-80
2022/04/14 02:30:21;;;;;;;35.63;23.77;;;13.80;99.90;;;;;;5093889;28;20046;-79
2022/04/14 02:32:47;;;;;;;38.40;25.65;;;13.90;99.90;;;;;;5092282;28;20395;-79
2022/04/14 02:35:12;;;;;;;35.95;23.23;;;13.90;99.90;;;;;;5091914;28;20062;-80
2022/04/14 02:37:38;;;;;;;38.70;22.42;;;13.80;99.90;;;;;;5086635;28;20062;-79
2022/04/14 02:40:05;;;;;;;37.08;25.83;;;13.80;99.90;;;;;;5086916;28;20024;-80
2022/04/14 02:42:38;;;;;;;43.10;25.02;;;13.80;99.90;;;;;;5088434;28;20027;-80
2022/04/14 02:45:04;;;;;;;34.47;24.00;;;13.80;99.90;;;;;;5091866;28;20035;-80
2022/04/14 02:47:29;;;;;;;38.63;25.38;;;13.80;99.90;;;;;;5096406;28;20123;-79
2022/04/14 02:49:55;;;;;;;33.83;24.75;;;13.80;99.90;;;;;;5094469;28;20554;-80
2022/04/14 02:52:20;;;;;;;46.25;25.88;;;13.80;99.90;;;;;;5102682;28;20039;-80
2022/04/14 02:54:46;;;;;;;34.88;24.08;;;13.80;99.90;;;;;;5087225;28;20148;-80
2022/04/14 02:57:12;;;;;;;36.08;25.98;;;13.70;99.90;;;;;;5100571;28;20111;-80
2022/04/14 02:59:37;;;;;;;39.05;24.70;;;13.70;99.90;;;;;;5090584;28;20085;-80
2022/04/14 03:02:04;;;;;;;42.60;24.92;;;13.70;99.90;;;;;;5107312;28;20356;-80
2022/04/14 03:04:30;;;;;;;39.78;25.17;;;13.70;99.90;;;;;;5095586;28;20020;-79
2022/04/14 03:06:56;;;;;;;35.85;23.95;;;13.70;99.90;;;;;;5090050;28;20074;-79
2022/04/14 03:09:22;;;;;;;40.00;25.70;;;13.70;99.90;;;;;;5087838;28;20251;-79
2022/04/14 03:11:48;;;;;;;38.03;25.80;;;13.70;99.90;;;;;;5099993;28;20028;-79
2022/04/14 03:14:14;;;;;;;35.65;24.95;;;13.70;99.90;;;;;;5095819;28;20040;-79
2022/04/14 03:16:39;;;;;;;42.08;26.70;;;13.70;99.90;;;;;;5088631;28;20333;-79
2022/04/14 03:19:05;;;;;;;41.08;27.13;;;13.70;99.90;;;;;;5090534;28;20032;-79
2022/04/14 03:21:30;;;;;;;42.88;27.30;;;13.70;99.90;;;;;;5092499;28;20361;-79
2022/04/14 03:23:56;;;;;;;37.90;26.05;;;13.60;99.90;;;;;;5085990;28;20038;-79
2022/04/14 03:26:22;;;;;;;39.35;27.15;;;13.60;99.90;;;;;;5096636;28;20019;-79
2022/04/14 03:28:47;;;;;;;39.63;26.08;;;13.50;99.90;;;;;;5091157;28;20117;-79
2022/04/14 03:31:13;;;;;;;40.00;26.23;;;13.50;99.90;;;;;;5088162;28;20036;-79
2022/04/14 03:33:39;;;;;;;34.17;24.25;;;13.50;99.90;;;;;;5100863;28;20032;-79
2022/04/14 03:36:05;;;;;;;36.15;24.10;;;13.50;99.90;;;;;;5093550;28;20034;-79
2022/04/14 03:38:31;;;;;;;34.28;23.17;;;13.50;99.90;;;;;;5091454;28;20109;-79
2022/04/14 03:40:57;;;;;;;31.27;22.67;;;13.50;99.90;;;;;;5101104;28;20579;-79
2022/04/14 03:43:22;;;;;;;33.33;22.67;;;13.50;99.90;;;;;;5094784;28;20260;-79
2022/04/14 03:45:48;;;;;;;33.85;22.63;;;13.50;99.90;;;;;;5083840;28;20099;-79
2022/04/14 03:48:14;;;;;;;33.10;21.63;;;13.40;99.90;;;;;;5090569;28;20032;-79
2022/04/14 03:50:39;;;;;;;31.70;21.25;;;13.40;99.90;;;;;;5095249;28;20364;-79
2022/04/14 03:53:06;;;;;;;31.95;19.77;;;13.40;99.90;;;;;;5097038;28;20049;-79
2022/04/14 03:55:31;;;;;;;25.25;18.83;;;13.40;99.90;;;;;;5097294;28;20051;-79
2022/04/14 03:57:57;;;;;;;31.35;19.20;;;13.30;99.90;;;;;;5085113;28;20059;-79
2022/04/14 04:00:22;;;;;;;25.77;17.88;;;13.30;99.90;;;;;;5095154;28;20538;-79
2022/04/14 04:02:48;;;;;;;27.40;17.33;;;13.30;99.90;;;;;;5090786;28;20016;-79
2022/04/14 04:05:14;;;;;;;24.45;16.98;;;13.30;99.90;;;;;;5089032;28;20507;-79
2022/04/14 04:07:39;;;;;;;26.00;16.73;;;13.30;99.90;;;;;;5088366;28;20024;-79
2022/04/14 04:10:06;;;;;;;26.67;15.95;;;13.20;99.90;;;;;;5100324;28;20119;-79
2022/04/14 04:12:32;;;;;;;21.77;14.63;;;13.20;99.90;;;;;;5093812;28;20131;-79
2022/04/14 04:14:58;;;;;;;24.95;16.10;;;13.20;99.90;;;;;;5089348;28;20107;-79
2022/04/14 04:17:23;;;;;;;23.63;14.85;;;13.20;99.90;;;;;;5091410;28;20043;-79
2022/04/14 04:19:49;;;;;;;22.52;14.38;;;13.20;99.90;;;;;;5095315;28;20114;-79
2022/04/14 04:22:15;;;;;;;23.85;15.23;;;13.20;99.90;;;;;;5098703;28;20038;-79
2022/04/14 04:24:40;;;;;;;21.63;14.90;;;13.20;99.90;;;;;;5081309;28;20459;-79
2022/04/14 04:27:06;;;;;;;25.67;15.35;;;13.30;99.90;;;;;;5093169;28;20085;-79
2022/04/14 04:29:32;;;;;;;24.60;14.50;;;13.30;99.90;;;;;;5087024;28;20097;-79
2022/04/14 04:31:58;;;;;;;21.00;14.80;;;13.30;99.90;;;;;;5101919;28;20741;-80
2022/04/14 04:34:24;;;;;;;24.45;14.27;;;13.40;99.90;;;;;;5086444;28;20499;-79
2022/04/14 04:36:50;;;;;;;22.52;14.70;;;13.40;99.90;;;;;;5084003;28;20424;-79
2022/04/14 04:39:16;;;;;;;23.52;15.23;;;13.30;99.90;;;;;;5096052;28;20032;-80
2022/04/14 04:41:41;;;;;;;24.67;16.38;;;13.40;99.90;;;;;;5085136;28;20024;-79
2022/04/14 04:44:07;;;;;;;23.20;16.13;;;13.30;99.90;;;;;;5091842;28;20035;-79
2022/04/14 04:46:33;;;;;;;24.27;15.80;;;13.30;99.90;;;;;;5093440;28;20028;-79
2022/04/14 04:48:59;;;;;;;23.45;16.42;;;13.20;99.90;;;;;;5098099;28;20122;-79
2022/04/14 04:51:25;;;;;;;28.45;17.15;;;13.20;99.90;;;;;;5096658;28;20028;-79
2022/04/14 04:53:52;;;;;;;26.92;17.10;;;13.20;99.90;;;;;;5092227;28;20121;-79
2022/04/14 04:56:20;;;;;;;28.13;19.08;;;13.20;99.90;;;;;;5087624;28;20043;-79
2022/04/14 04:58:46;;;;;;;25.85;17.08;;;13.20;99.90;;;;;;5089309;28;20511;-80
2022/04/14 05:01:12;;;;;;;26.65;17.50;;;13.20;99.90;;;;;;5091851;28;20046;-81
2022/04/14 05:03:38;;;;;;;23.77;16.45;;;13.20;99.90;;;;;;5095112;28;20055;-78
2022/04/14 05:06:04;;;;;;;27.95;17.58;;;13.10;99.90;;;;;;5098399;28;20063;-78
2022/04/14 05:08:29;;;;;;;24.70;16.58;;;13.10;99.90;;;;;;5099191;28;20108;-79
2022/04/14 05:10:55;;;;;;;23.85;16.13;;;13.10;99.90;;;;;;5102762;28;20109;-79
2022/04/14 05:13:21;;;;;;;20.02;15.48;;;13.20;99.90;;;;;;5093668;28;20028;-79
2022/04/14 05:15:46;;;;;;;25.08;17.20;;;13.20;99.90;;;;;;5092493;28;20307;-79
2022/04/14 05:18:13;;;;;;;19.83;15.10;;;13.20;99.90;;;;;;5094408;28;20024;-77
2022/04/14 05:20:42;;;;;;;20.67;14.77;;;13.20;99.90;;;;;;5092660;28;20020;-80
2022/04/14 05:23:08;;;;;;;19.38;14.77;;;13.30;99.90;;;;;;5098745;28;20043;-78
2022/04/14 05:25:34;;;;;;;22.30;14.65;;;13.20;99.90;;;;;;5092765;28;20281;-78
2022/04/14 05:27:59;;;;;;;17.42;12.93;;;13.20;99.90;;;;;;5090953;28;20047;-78
2022/04/14 05:30:25;;;;;;;15.68;12.13;;;13.20;99.90;;;;;;5086788;28;20511;-78
2022/04/14 05:32:51;;;;;;;14.15;11.23;;;13.20;99.90;;;;;;5088169;28;20036;-78
2022/04/14 05:35:16;;;;;;;14.10;10.20;;;13.20;99.90;;;;;;5085783;28;20031;-78
2022/04/14 05:37:42;;;;;;;12.60;8.93;;;13.20;99.90;;;;;;5084866;28;20027;-78
2022/04/14 05:40:08;;;;;;;11.52;8.02;;;13.20;99.90;;;;;;5085792;28;20117;-78
2022/04/14 05:42:34;;;;;;;13.07;8.35;;;13.20;99.90;;;;;;5088846;28;20016;-79
2022/04/14 05:45:00;;;;;;;12.73;7.40;;;13.20;99.90;;;;;;5090036;28;20042;-79
2022/04/14 05:47:26;;;;;;;10.90;8.10;;;13.20;99.90;;;;;;5091372;28;20028;-78
2022/04/14 05:49:53;;;;;;;12.20;8.07;;;13.20;99.90;;;;;;5098109;28;20609;-79
2022/04/14 05:52:19;;;;;;;11.90;8.07;;;13.20;99.90;;;;;;5097459;28;20527;-79
2022/04/14 05:54:48;;;;;;;8.18;5.72;;;13.30;99.90;;;;;;5087331;28;20099;-78
2022/04/14 05:57:14;;;;;;;6.55;4.88;;;13.30;99.90;;;;;;5087098;28;20032;-81
2022/04/14 05:59:40;;;;;;;7.78;4.63;;;13.40;99.90;;;;;;5084620;28;20235;-81
2022/04/14 06:02:07;;;;;;;6.47;4.40;;;13.40;99.90;;;;;;5083704;28;20232;-81
2022/04/14 06:04:32;;;;;;;7.85;4.90;;;13.50;99.90;;;;;;5085177;28;20027;-80
2022/04/14 06:06:58;;;;;;;6.00;4.38;;;13.60;99.90;;;;;;5088557;28;20020;-81
2022/04/14 06:09:24;;;;;;;7.47;4.63;;;13.60;99.90;;;;;;5083779;28;20032;-81
2022/04/14 06:11:49;;;;;;;5.80;4.40;;;13.60;99.90;;;;;;5091293;28;20514;-81
2022/04/14 06:14:15;;;;;;;8.85;5.10;;;13.60;99.90;;;;;;5089581;28;20032;-81
2022/04/14 06:16:40;;;;;;;7.22;4.97;;;13.60;99.90;;;;;;5084859;28;20040;-81
2022/04/14 06:19:06;;;;;;;8.38;5.03;;;13.60;99.90;;;;;;5093771;28;20032;-81
2022/04/14 06:21:32;;;;;;;7.30;4.40;;;13.60;99.90;;;;;;5097345;28;20024;-81
2022/04/14 06:23:57;;;;;;;9.88;4.93;;;13.60;99.90;;;;;;5095202;28;20507;-81
2022/04/14 06:26:23;;;;;;;6.35;4.60;;;13.70;99.90;;;;;;5087194;28;20032;-79
2022/04/14 06:28:48;;;;;;;7.88;5.13;;;13.70;99.90;;;;;;5089121;28;20281;-81
2022/04/14 06:31:14;;;;;;;7.35;4.55;;;13.70;99.90;;;;;;5085695;28;20027;-81
2022/04/14 06:33:41;;;;;;;10.05;5.50;;;13.70;99.90;;;;;;5088241;28;20024;-81
2022/04/14 06:36:07;;;;;;;7.85;5.35;;;13.60;99.90;;;;;;5091503;28;20028;-82
2022/04/14 06:38:33;;;;;;;7.30;5.55;;;13.70;99.90;;;;;;5091059;28;20115;-80
2022/04/14 06:40:58;;;;;;;9.98;5.40;;;13.60;99.90;;;;;;5091694;28;20111;-81
2022/04/14 06:43:24;;;;;;;8.68;5.53;;;13.60;99.90;;;;;;5091669;28;20028;-81
2022/04/14 06:45:51;;;;;;;8.20;5.45;;;13.60;99.90;;;;;;5088869;28;21332;-82
2022/04/14 06:48:17;;;;;;;11.85;6.35;;;13.60;99.90;;;;;;5091471;28;20080;-83
2022/04/14 06:50:43;;;;;;;11.13;7.20;;;13.60;99.90;;;;;;5097048;28;20027;-85
2022/04/14 06:53:08;;;;;;;10.85;7.35;;;13.60;99.90;;;;;;5094638;28;20448;-85
2022/04/14 06:55:36;;;;;;;10.35;7.25;;;13.60;99.90;;;;;;5094661;28;20020;-83
2022/04/14 06:58:02;;;;;;;14.20;8.05;;;13.60;99.90;;;;;;5091197;28;20134;-87
2022/04/14 07:00:29;;;;;;;10.50;8.43;;;13.50;99.90;;;;;;5093423;28;21185;-86
2022/04/14 07:02:55;;;;;;;11.80;8.85;;;13.50;99.90;;;;;;5100844;28;20035;-84
2022/04/14 07:05:22;;;;;;;13.00;8.77;;;13.50;99.90;;;;;;5084909;28;20034;-85
2022/04/14 07:07:49;;;;;;;13.60;9.20;;;13.50;99.90;;;;;;5101392;28;20084;-82
2022/04/14 07:10:15;;;;;;;13.85;9.48;;;13.50;99.90;;;;;;5089650;28;20031;-81
2022/04/14 07:12:42;;;;;;;15.90;9.82;;;13.50;99.90;;;;;;5098627;28;20387;-81
2022/04/14 07:15:09;;;;;;;16.55;10.27;;;13.40;99.90;;;;;;5088831;28;20388;-81
2022/04/14 07:17:36;;;;;;;15.93;10.23;;;13.40;99.90;;;;;;5096462;28;20062;-81
2022/04/14 07:20:03;;;;;;;13.90;10.30;;;13.30;99.90;;;;;;5099320;28;20032;-81
2022/04/14 07:22:42;;;;;;;15.48;10.15;;;13.30;99.90;;;;;;5094093;28;20111;-82
2022/04/14 07:25:08;;;;;;;15.38;9.88;;;13.30;99.90;;;;;;5092823;28;20722;-81
2022/04/14 07:27:34;;;;;;;12.48;9.13;;;13.20;99.90;;;;;;5095217;28;20120;-80
2022/04/14 07:29:59;;;;;;;14.68;8.05;;;13.20;99.90;;;;;;5097552;28;20048;-80
2022/04/14 07:32:34;;;;;;;10.18;7.88;;;13.20;99.90;;;;;;5091281;28;20089;-79
2022/04/14 07:35:00;;;;;;;10.57;7.25;;;13.20;99.90;;;;;;5085404;28;20024;-80
2022/04/14 07:37:25;;;;;;;8.43;6.88;;;13.10;99.90;;;;;;5098040;28;20024;-80
2022/04/14 07:39:51;;;;;;;8.90;5.60;;;13.10;99.90;;;;;;5090939;28;20557;-79
2022/04/14 07:42:16;;;;;;;9.27;5.18;;;13.10;99.90;;;;;;5104053;28;20028;-80
2022/04/14 07:44:42;;;;;;;8.43;4.60;;;13.00;99.90;;;;;;5090855;28;20131;-80
2022/04/14 07:47:07;;;;;;;7.32;3.80;;;13.00;99.90;;;;;;5092359;28;20032;-80
2022/04/14 07:49:33;;;;;;;5.13;3.60;;;13.00;99.90;;;;;;5095422;28;20129;-80
2022/04/14 07:51:59;;;;;;;3.67;3.25;;;13.00;99.90;;;;;;5095391;28;20529;-80
2022/04/14 07:54:25;;;;;;;3.90;3.10;;;13.00;99.90;;;;;;5088270;28;20365;-81
2022/04/14 07:56:50;;;;;;;4.03;2.90;;;13.00;99.90;;;;;;5099128;28;20030;-81
2022/04/14 07:59:16;;;;;;;3.67;2.90;;;12.90;99.90;;;;;;5095377;28;20028;-81
2022/04/14 08:01:42;;;;;;;5.30;2.97;;;12.90;99.90;;;;;;5099870;28;20019;-80
2022/04/14 08:04:08;;;;;;;5.57;2.90;;;13.00;99.90;;;;;;5086552;28;20551;-81
2022/04/14 08:06:33;;;;;;;4.10;2.55;;;13.00;99.90;;;;;;5082936;28;20386;-80
2022/04/14 08:09:00;;;;;;;3.80;2.70;;;13.00;99.90;;;;;;5091714;28;20031;-78
2022/04/14 08:11:25;;;;;;;5.78;2.92;;;13.00;99.90;;;;;;5092307;28;20499;-80
2022/04/14 08:13:51;;;;;;;4.10;2.72;;;13.00;99.90;;;;;;5090221;28;20031;-80
2022/04/14 08:16:16;;;;;;;4.40;2.90;;;13.00;99.90;;;;;;5091070;28;20032;-80
2022/04/14 08:18:42;;;;;;;3.10;2.80;;;12.90;99.90;;;;;;5090197;28;20285;-78
2022/04/14 08:21:08;;;;;;;3.83;2.70;;;12.90;99.90;;;;;;5097060;28;20046;-82
2022/04/14 08:23:38;;;;;;;5.55;3.03;;;12.90;99.90;;;;;;5088334;28;20032;-80
2022/04/14 08:26:05;;;;;;;3.20;2.75;;;12.90;99.90;;;;;;5087987;28;20032;-82
2022/04/14 08:28:31;;;;;;;3.85;2.72;;;12.90;99.90;;;;;;5091355;28;20035;-79
2022/04/14 08:30:56;;;;;;;4.82;3.10;;;12.90;99.90;;;;;;5089255;28;20081;-80
2022/04/14 08:33:23;;;;;;;3.30;2.47;;;13.00;99.90;;;;;;5080198;28;20028;-79
2022/04/14 08:35:51;;;;;;;4.43;3.05;;;13.00;99.90;;;;;;5079916;28;20428;-77
2022/04/14 08:38:17;;;;;;;4.72;2.42;;;13.10;99.90;;;;;;5085667;28;20036;-83
2022/04/14 08:40:46;;;;;;;5.00;2.58;;;13.10;99.90;;;;;;5092199;28;20024;-80
2022/04/14 08:43:17;;;;;;;5.35;2.83;;;13.10;99.90;;;;;;5090460;28;20085;-82
2022/04/14 08:45:47;;;;;;;4.65;2.80;;;13.20;99.90;;;;;;5088594;28;20499;-78
2022/04/14 08:48:15;;;;;;;3.75;2.92;;;13.20;99.90;;;;;;5085555;28;20139;-81
2022/04/14 08:50:42;;;;;;;3.58;2.83;;;13.20;99.90;;;;;;5088231;28;20682;-85
2022/04/14 08:53:09;;;;;;;4.15;3.08;;;13.20;99.90;;;;;;5086873;28;20118;-83
2022/04/14 08:55:39;;;;;;;3.67;2.90;;;13.20;99.90;;;;;;5087711;28;20506;-82
2022/04/14 08:58:06;;;;;;;3.20;2.90;;;13.30;99.90;;;;;;5086928;28;20032;-80
2022/04/14 09:00:32;;;;;;;4.50;2.90;;;13.30;99.90;;;;;;5088571;28;20035;-80
2022/04/14 09:02:59;;;;;;;5.60;3.15;;;13.30;99.90;;;;;;5087728;28;20043;-85
2022/04/14 09:05:25;;;;;;;3.80;3.30;;;13.40;99.90;;;;;;5090787;28;20430;-81
2022/04/14 09:07:51;;;;;;;5.25;3.47;;;13.40;99.90;;;;;;5088608;28;20043;-82
2022/04/14 09:10:18;;;;;;;5.35;3.95;;;13.40;99.90;;;;;;5089754;28;20024;-80
2022/04/14 09:12:45;;;;;;;7.38;4.45;;;13.40;99.90;;;;;;5099703;28;20042;-81
2022/04/14 09:15:11;;;;;;;10.25;5.55;;;13.50;99.90;;;;;;5090805;28;20492;-80
2022/04/14 09:17:36;;;;;;;8.63;5.30;;;13.50;99.90;;;;;;5091880;28;20039;-80
2022/04/14 09:20:42;;;;;;;9.25;5.68;;;13.50;99.90;;;;;;5087001;28;20036;-84
2022/04/14 09:23:22;;;;;;;8.90;5.32;;;13.50;99.90;;;;;;4995806;28;20088;-78
2022/04/14 09:25:53;;;;;;;8.95;5.53;;;13.50;99.90;;;;;;4995161;28;20101;-82
2022/04/14 09:28:20;;;;;;;7.70;5.18;;;13.50;99.90;;;;;;5058379;28;20127;-81
2022/04/14 09:31:08;;;;;;;9.45;5.13;;;13.50;99.90;;;;;;5094006;28;20039;-83
2022/04/14 09:33:36;;;;;;;6.70;5.03;;;13.50;99.90;;;;;;5085384;28;20466;-79
2022/04/14 09:36:19;;;;;;;5.22;4.47;;;13.40;99.90;;;;;;5089221;28;20039;-78
2022/04/14 09:38:53;;;;;;;7.20;5.43;;;13.40;99.90;;;;;;5082907;28;20512;-78
2022/04/14 09:41:43;;;;;;;7.93;5.63;;;13.40;99.90;;;;;;5093848;28;20040;-78
2022/04/14 09:44:10;;;;;;;8.00;5.60;;;13.40;99.90;;;;;;5084849;28;20032;-77
2022/04/14 09:46:46;;;;;;;8.10;5.82;;;13.50;99.90;;;;;;5093780;28;20024;-77
2022/04/14 09:49:16;;;;;;;9.35;6.20;;;13.50;99.90;;;;;;5094321;28;20035;-78
2022/04/14 09:51:46;;;;;;;10.30;7.13;;;13.50;99.90;;;;;;5092899;28;20046;-78
2022/04/14 09:54:17;;;;;;;8.60;6.60;;;13.50;99.90;;;;;;5092703;28;20024;-78
2022/04/14 09:56:54;;;;;;;8.38;6.47;;;13.40;99.90;;;;;;5097261;28;20365;-79
2022/04/14 09:59:25;;;;;;;10.63;6.97;;;13.50;99.90;;;;;;5096141;28;20530;-79
2022/04/14 10:02:12;;;;;;;9.00;6.90;;;13.50;99.90;;;;;;5099714;28;20034;-78
2022/04/14 10:04:40;;;;;;;8.73;7.30;;;13.60;99.90;;;;;;5089389;28;20093;-78
2022/04/14 10:07:17;;;;;;;9.00;6.68;;;13.60;99.90;;;;;;5089755;28;20035;-77
2022/04/14 10:09:45;;;;;;;9.85;7.50;;;13.70;99.90;;;;;;5089639;28;20488;-77
2022/04/14 10:12:20;;;;;;;11.00;7.95;;;13.80;99.90;;;;;;5100160;28;20031;-77
2022/04/14 10:15:03;;;;;;;9.80;7.38;;;13.90;99.90;;;;;;5094391;28;20126;-76
2022/04/14 10:17:31;;;;;;;10.23;8.05;;;13.90;99.90;;;;;;5090433;28;20031;-77
2022/04/14 10:19:57;;;;;;;11.43;8.13;;;13.90;99.90;;;;;;5100357;28;20043;-77
2022/04/14 10:22:24;;;;;;;12.45;8.73;;;13.90;99.90;;;;;;5097978;28;20024;-76
2022/04/14 10:24:55;;;;;;;12.00;8.82;;;13.90;99.90;;;;;;5098176;28;20491;-76
2022/04/14 10:27:24;;;;;;;10.70;8.85;;;14.00;99.90;;;;;;5105501;28;20028;-75
2022/04/14 10:29:50;;;;;;;11.35;8.68;;;14.00;99.90;;;;;;5092896;28;20036;-75
2022/04/14 10:32:16;;;;;;;11.18;8.57;;;14.00;99.90;;;;;;5095734;28;20472;-75
2022/04/14 10:34:44;;;;;;;12.02;8.90;;;14.10;99.90;;;;;;5086278;28;20020;-76
2022/04/14 10:37:19;;;;;;;10.80;8.90;;;14.00;99.90;;;;;;5091955;28;20032;-75
2022/04/14 10:39:49;;;;;;;11.10;8.57;;;14.10;99.90;;;;;;5090004;28;20513;-75
2022/04/14 10:42:20;;;;;;;10.98;8.70;;;14.10;99.90;;;;;;5095572;28;20028;-75
2022/04/14 10:44:47;;;;;;;11.05;9.23;;;14.10;99.90;;;;;;5086462;28;20045;-75
2022/04/14 10:47:33;;;;;;;10.35;8.57;;;14.20;99.90;;;;;;5090826;28;20093;-75
2022/04/14 10:49:59;;;;;;;12.55;9.32;;;14.20;99.90;;;;;;5091437;28;20084;-75
2022/04/14 10:52:26;;;;;;;13.90;9.48;;;14.20;99.90;;;;;;5091739;28;20027;-75
2022/04/14 10:54:55;;;;;;;12.55;9.80;;;14.30;99.90;;;;;;5094386;28;20583;-75
2022/04/14 10:57:38;;;;;;;13.00;10.00;;;14.30;99.90;;;;;;5098742;28;20602;-75
2022/04/14 11:00:19;;;;;;;15.43;11.10;;;14.30;99.90;;;;;;5101189;28;20039;-76
2022/04/14 11:03:03;;;;;;;14.20;11.02;;;14.40;99.90;;;;;;5095996;28;20519;-76
2022/04/14 11:05:48;;;;;;;13.77;10.60;;;14.40;99.90;;;;;;5099876;28;20395;-77
2022/04/14 11:08:22;;;;;;;12.30;9.98;;;14.50;99.90;;;;;;5097944;28;20054;-75
2022/04/14 11:10:53;;;;;;;;;;;14.60;99.90;;;;;;5094952;28;20506;-74
2022/04/14 11:13:19;;;;;;;14.50;9.93;;;14.70;99.90;;;;;;5098518;28;19908;-75
2022/04/14 11:15:44;;;;;;;14.00;10.15;;;14.90;99.90;;;;;;5089110;28;20555;-75
2022/04/14 11:18:10;;;;;;;13.15;10.02;;;15.10;99.90;;;;;;5089099;28;20024;-74
2022/04/14 11:20:37;;;;;;;11.80;10.10;;;15.20;99.90;;;;;;5100059;28;20016;-74
2022/04/14 11:23:15;;;;;;;16.48;10.68;;;15.30;99.90;;;;;;5092662;28;20035;-73
2022/04/14 11:28:21;;;;;;;11.50;9.50;;;15.40;99.90;;;;;;5091326;28;20036;-72
2022/04/14 11:30:48;;;;;;;13.10;9.75;;;15.40;99.90;;;;;;5055488;28;20505;-71
2022/04/14 11:33:20;;;;;;;10.43;8.88;;;15.40;99.90;;;;;;5050726;28;20570;-73
2022/04/14 11:35:47;;;;;;;13.82;10.60;;;15.50;99.90;;;;;;5045464;28;20039;-72
2022/04/14 11:38:53;;;;;;;15.70;12.02;;;15.60;99.90;;;;;;5047666;28;20889;-72
2022/04/14 11:41:37;;;;;;;15.02;11.07;;;15.70;99.90;;;;;;5048706;28;20029;-73
2022/04/14 11:44:06;;;;;;;12.30;9.77;;;15.80;99.90;;;;;;5047534;28;20465;-69
2022/04/14 11:46:32;;;;;;;13.82;10.60;;;15.80;99.90;;;;;;5048747;28;20036;-71
2022/04/14 11:49:01;;;;;;;13.50;10.80;;;15.90;99.90;;;;;;5057495;28;20021;-72
2022/04/14 11:51:27;;;;;;;12.50;10.65;;;15.90;99.90;;;;;;5050779;28;20033;-72
2022/04/14 11:53:55;;;;;;;13.32;10.82;;;15.80;99.90;;;;;;5047832;28;20024;-71
2022/04/14 11:56:22;;;;;;;14.60;10.55;;;15.70;99.90;;;;;;5053933;28;20112;-74
2022/04/14 11:58:48;;;;;;;13.25;10.38;;;15.70;99.90;;;;;;5051032;28;20032;-71
2022/04/14 12:01:13;;;;;;;14.13;10.30;;;15.80;99.90;;;;;;5048874;28;20075;-73
2022/04/14 12:03:41;;;;;;;14.52;10.93;;;15.90;99.90;;;;;;5045065;28;20378;-74
2022/04/14 12:06:08;;;;;;;12.50;9.60;;;16.00;99.90;;;;;;5046766;28;20094;-72
2022/04/14 12:08:35;;;;;;;13.13;10.82;;;16.10;99.90;;;;;;5044033;28;20045;-73
2022/04/14 12:11:12;;;;;;;13.52;11.38;;;16.10;99.90;;;;;;5046881;28;20048;-72
2022/04/14 12:13:39;;;;;;;16.45;11.23;;;16.30;99.90;;;;;;5049940;28;20052;-71
2022/04/14 12:16:10;;;;;;;14.18;10.82;;;16.40;99.90;;;;;;5042202;28;20033;-74
2022/04/14 12:18:47;;;;;;;15.43;11.07;;;16.50;99.90;;;;;;5051157;28;20568;-73
2022/04/14 12:21:22;;;;;;;12.73;10.23;;;16.40;99.90;;;;;;5055151;28;20408;-74
2022/04/14 12:23:49;;;;;;;12.57;10.73;;;16.40;99.90;;;;;;5050670;28;20032;-73
2022/04/14 12:26:16;;;;;;;15.63;11.73;;;16.50;99.90;;;;;;5046047;28;20021;-74
2022/04/14 12:28:42;;;;;;;17.05;12.68;;;16.60;99.90;;;;;;5049819;28;20047;-72
2022/04/14 12:31:12;;;;;;;18.35;11.80;;;16.80;99.90;;;;;;5085976;28;20032;-75
2022/04/14 12:33:38;;;;;;;16.52;11.80;;;16.90;99.90;;;;;;5096984;28;20679;-72
2022/04/14 12:36:10;;;;;;;16.27;11.77;;;16.90;99.90;;;;;;5100511;28;20040;-72
2022/04/14 12:38:47;;;;;;;16.20;11.45;;;17.10;99.90;;;;;;5089321;28;20028;-73